Arroyo De La Ventana, Argentina
Current Conditions -  °F | °C
As of 7:00 PM on Thursday 27 Nov 2014 (Local Time) from SAZN Reporting Station
Clear Clear  
Wind Chill: 77°   Ceiling: Unl
Heat Index: 77°   Visibility: 6mi
Dew Point: 34°   Wind: 8mph
Humidity: 21%   Direction: 230°SW
Pressure: 29.8"   Gusts: NA
Location:  41.79°S, 66.53°W
Report Text: SAZN 272200Z 23007KT CAVOK 25/01 Q1009
Loading
Personal Weather Stations






























Interactive Weather Map New forecast layout! Learn more

10-Day Weather Forecast

Advertisements
Track Severe Weather on mobile